Montrose, Ohio
Current Conditions -  °F | °C
As of 1:54 PM on Thursday 30 Oct 2014 (Local Time) from KAKR Reporting Station
Overcast Overcast  
Wind Chill: 50°   Ceiling: 4200
Heat Index: 50°   Visibility: 10mi
Dew Point: 37°   Wind: 5mph
Humidity: 61%   Direction: 270°W
Pressure: 30.09"   Gusts: NA
Location:  41.1631°N, 81.6352°W
Report Text: KAKR 301754Z AUTO 27004KT 10SM SCT028 OVC042 10/03 A3009 RMK AO2 SLP191 60001 T01000028 10100 20061 58011
Loading
Personal Weather Stations






























Interactive Weather Map
Tropical Storm Tracking
New forecast layout! Learn more

10-Day Weather Forecast

Advertisements
Track Severe Weather on mobile